sensor_id;sensor_type;location;lat;lon;timestamp;temperature;humidity
33099;DHT22;19465;49.016;11.414;2024-03-08T00:00:27;1.90;99.90
33099;DHT22;19465;49.016;11.414;2024-03-08T00:02:52;1.80;99.90
33099;DHT22;19465;49.016;11.414;2024-03-08T00:05:19;1.80;99.90
33099;DHT22;19465;49.016;11.414;2024-03-08T00:07:45;1.70;99.90
33099;DHT22;19465;49.016;11.414;2024-03-08T00:10:12;1.70;99.90
33099;DHT22;19465;49.016;11.414;2024-03-08T00:12:42;1.70;99.90
33099;DHT22;19465;49.016;11.414;2024-03-08T00:15:16;1.70;99.90
33099;DHT22;19465;49.016;11.414;2024-03-08T00:17:43;1.70;99.90
33099;DHT22;19465;49.016;11.414;2024-03-08T00:20:08;1.60;99.90
33099;DHT22;19465;49.016;11.414;2024-03-08T00:22:38;1.60;99.90
33099;DHT22;19465;49.016;11.414;2024-03-08T00:25:05;1.70;99.90
33099;DHT22;19465;49.016;11.414;2024-03-08T00:27:31;1.70;99.90
33099;DHT22;19465;49.016;11.414;2024-03-08T00:30:00;1.60;99.90
33099;DHT22;19465;49.016;11.414;2024-03-08T00:32:26;1.60;99.90
33099;DHT22;19465;49.016;11.414;2024-03-08T00:34:53;1.50;99.90
33099;DHT22;19465;49.016;11.414;2024-03-08T00:37:20;1.50;99.90
33099;DHT22;19465;49.016;11.414;2024-03-08T00:39:45;1.50;99.90
33099;DHT22;19465;49.016;11.414;2024-03-08T00:42:11;1.50;99.90
33099;DHT22;19465;49.016;11.414;2024-03-08T00:44:36;1.50;99.90
33099;DHT22;19465;49.016;11.414;2024-03-08T00:47:02;1.50;99.90
33099;DHT22;19465;49.016;11.414;2024-03-08T00:49:28;1.50;99.90
33099;DHT22;19465;49.016;11.414;2024-03-08T00:51:54;1.50;99.90
33099;DHT22;19465;49.016;11.414;2024-03-08T00:54:19;1.50;99.90
33099;DHT22;19465;49.016;11.414;2024-03-08T00:56:45;1.50;99.90
33099;DHT22;19465;49.016;11.414;2024-03-08T00:59:11;1.40;99.90
33099;DHT22;19465;49.016;11.414;2024-03-08T01:01:36;1.40;99.90
33099;DHT22;19465;49.016;11.414;2024-03-08T01:04:02;1.40;99.90
33099;DHT22;19465;49.016;11.414;2024-03-08T01:06:28;1.40;99.90
33099;DHT22;19465;49.016;11.414;2024-03-08T01:08:53;1.40;99.90
33099;DHT22;19465;49.016;11.414;2024-03-08T01:11:19;1.40;99.90
33099;DHT22;19465;49.016;11.414;2024-03-08T01:13:44;1.40;99.90
33099;DHT22;19465;49.016;11.414;2024-03-08T01:16:12;1.40;99.90
33099;DHT22;19465;49.016;11.414;2024-03-08T01:18:38;1.50;99.90
33099;DHT22;19465;49.016;11.414;2024-03-08T01:21:04;1.40;99.90
33099;DHT22;19465;49.016;11.414;2024-03-08T01:23:29;1.40;99.90
33099;DHT22;19465;49.016;11.414;2024-03-08T01:25:55;1.40;99.90
33099;DHT22;19465;49.016;11.414;2024-03-08T01:28:24;1.40;99.90
33099;DHT22;19465;49.016;11.414;2024-03-08T01:30:50;1.30;99.90
33099;DHT22;19465;49.016;11.414;2024-03-08T01:33:24;1.20;99.90
33099;DHT22;19465;49.016;11.414;2024-03-08T01:35:51;1.20;99.90
33099;DHT22;19465;49.016;11.414;2024-03-08T01:38:16;1.20;99.90
33099;DHT22;19465;49.016;11.414;2024-03-08T01:40:42;1.10;99.90
33099;DHT22;19465;49.016;11.414;2024-03-08T01:43:21;1.20;99.90
33099;DHT22;19465;49.016;11.414;2024-03-08T01:45:47;1.20;99.90
33099;DHT22;19465;49.016;11.414;2024-03-08T01:48:15;1.20;99.90
33099;DHT22;19465;49.016;11.414;2024-03-08T01:50:40;1.20;99.90
33099;DHT22;19465;49.016;11.414;2024-03-08T01:53:07;1.20;99.90
33099;DHT22;19465;49.016;11.414;2024-03-08T01:55:35;1.20;99.90
33099;DHT22;19465;49.016;11.414;2024-03-08T01:58:02;1.20;99.90
33099;DHT22;19465;49.016;11.414;2024-03-08T02:00:29;1.20;99.90
33099;DHT22;19465;49.016;11.414;2024-03-08T02:02:55;1.10;99.90
33099;DHT22;19465;49.016;11.414;2024-03-08T02:05:23;1.20;99.90
33099;DHT22;19465;49.016;11.414;2024-03-08T02:07:49;1.20;99.90
33099;DHT22;19465;49.016;11.414;2024-03-08T02:10:15;1.10;99.90
33099;DHT22;19465;49.016;11.414;2024-03-08T02:12:41;1.10;99.90
33099;DHT22;19465;49.016;11.414;2024-03-08T02:15:07;1.10;99.90
33099;DHT22;19465;49.016;11.414;2024-03-08T02:17:33;1.10;99.90
33099;DHT22;19465;49.016;11.414;2024-03-08T02:20:01;1.00;99.90
33099;DHT22;19465;49.016;11.414;2024-03-08T02:22:28;1.00;99.90
33099;DHT22;19465;49.016;11.414;2024-03-08T02:24:55;1.00;99.90
33099;DHT22;19465;49.016;11.414;2024-03-08T02:27:24;0.90;99.90
33099;DHT22;19465;49.016;11.414;2024-03-08T02:29:52;0.90;99.90
33099;DHT22;19465;49.016;11.414;2024-03-08T02:32:21;0.90;99.90
33099;DHT22;19465;49.016;11.414;2024-03-08T02:34:47;0.80;99.90
33099;DHT22;19465;49.016;11.414;2024-03-08T02:37:13;0.80;99.90
33099;DHT22;19465;49.016;11.414;2024-03-08T02:39:38;0.80;99.90
33099;DHT22;19465;49.016;11.414;2024-03-08T02:42:04;0.90;99.90
33099;DHT22;19465;49.016;11.414;2024-03-08T02:44:30;1.00;99.90
33099;DHT22;19465;49.016;11.414;2024-03-08T02:46:55;1.00;99.90
33099;DHT22;19465;49.016;11.414;2024-03-08T02:49:21;1.00;99.90
33099;DHT22;19465;49.016;11.414;2024-03-08T02:51:47;1.00;99.90
33099;DHT22;19465;49.016;11.414;2024-03-08T02:54:12;1.00;99.90
33099;DHT22;19465;49.016;11.414;2024-03-08T02:56:38;0.90;99.90
33099;DHT22;19465;49.016;11.414;2024-03-08T02:59:03;0.90;99.90
33099;DHT22;19465;49.016;11.414;2024-03-08T03:01:29;0.90;99.90
33099;DHT22;19465;49.016;11.414;2024-03-08T03:03:54;0.80;99.90
33099;DHT22;19465;49.016;11.414;2024-03-08T03:06:20;0.80;99.90
33099;DHT22;19465;49.016;11.414;2024-03-08T03:08:46;0.70;99.90
33099;DHT22;19465;49.016;11.414;2024-03-08T03:11:15;0.80;99.90
33099;DHT22;19465;49.016;11.414;2024-03-08T03:13:40;0.70;99.90
33099;DHT22;19465;49.016;11.414;2024-03-08T03:16:07;0.80;99.90
33099;DHT22;19465;49.016;11.414;2024-03-08T03:18:33;0.70;99.90
33099;DHT22;19465;49.016;11.414;2024-03-08T03:20:58;0.70;99.90
33099;DHT22;19465;49.016;11.414;2024-03-08T03:23:24;0.70;99.90
33099;DHT22;19465;49.016;11.414;2024-03-08T03:25:51;0.80;99.90
33099;DHT22;19465;49.016;11.414;2024-03-08T03:28:17;0.80;99.90
33099;DHT22;19465;49.016;11.414;2024-03-08T03:30:47;0.80;99.90
33099;DHT22;19465;49.016;11.414;2024-03-08T03:33:12;0.90;99.90
33099;DHT22;19465;49.016;11.414;2024-03-08T03:35:40;0.80;99.90
33099;DHT22;19465;49.016;11.414;2024-03-08T03:38:06;0.80;99.90
33099;DHT22;19465;49.016;11.414;2024-03-08T03:40:35;0.80;99.90
33099;DHT22;19465;49.016;11.414;2024-03-08T03:43:02;0.80;99.90
33099;DHT22;19465;49.016;11.414;2024-03-08T03:45:28;0.70;99.90
33099;DHT22;19465;49.016;11.414;2024-03-08T03:47:54;0.70;99.90
33099;DHT22;19465;49.016;11.414;2024-03-08T03:50:20;0.70;99.90
33099;DHT22;19465;49.016;11.414;2024-03-08T03:52:46;0.60;99.90
33099;DHT22;19465;49.016;11.414;2024-03-08T03:55:12;0.60;99.90
33099;DHT22;19465;49.016;11.414;2024-03-08T03:57:39;0.60;99.90
33099;DHT22;19465;49.016;11.414;2024-03-08T04:00:05;0.50;99.90
33099;DHT22;19465;49.016;11.414;2024-03-08T04:02:31;0.50;99.90
33099;DHT22;19465;49.016;11.414;2024-03-08T04:04:57;0.50;99.90
33099;DHT22;19465;49.016;11.414;2024-03-08T04:07:22;0.50;99.90
33099;DHT22;19465;49.016;11.414;2024-03-08T04:09:48;0.50;99.90
33099;DHT22;19465;49.016;11.414;2024-03-08T04:12:13;0.40;99.90
33099;DHT22;19465;49.016;11.414;2024-03-08T04:14:42;0.50;99.90
33099;DHT22;19465;49.016;11.414;2024-03-08T04:17:08;0.50;99.90
33099;DHT22;19465;49.016;11.414;2024-03-08T04:19:38;0.50;99.90
33099;DHT22;19465;49.016;11.414;2024-03-08T04:22:05;0.40;99.90
33099;DHT22;19465;49.016;11.414;2024-03-08T04:24:32;0.40;99.90
33099;DHT22;19465;49.016;11.414;2024-03-08T04:26:58;0.40;99.90
33099;DHT22;19465;49.016;11.414;2024-03-08T04:29:24;0.40;99.90
33099;DHT22;19465;49.016;11.414;2024-03-08T04:31:49;0.40;99.90
33099;DHT22;19465;49.016;11.414;2024-03-08T04:34:20;0.40;99.90
33099;DHT22;19465;49.016;11.414;2024-03-08T04:36:45;0.30;99.90
33099;DHT22;19465;49.016;11.414;2024-03-08T04:39:11;0.40;99.90
33099;DHT22;19465;49.016;11.414;2024-03-08T04:41:38;0.40;99.90
33099;DHT22;19465;49.016;11.414;2024-03-08T04:44:04;0.40;99.90
33099;DHT22;19465;49.016;11.414;2024-03-08T04:46:30;0.40;99.90
33099;DHT22;19465;49.016;11.414;2024-03-08T04:48:55;0.40;99.90
33099;DHT22;19465;49.016;11.414;2024-03-08T04:51:21;0.40;99.90
33099;DHT22;19465;49.016;11.414;2024-03-08T04:53:46;0.40;99.90
33099;DHT22;19465;49.016;11.414;2024-03-08T04:56:12;0.40;99.90
33099;DHT22;19465;49.016;11.414;2024-03-08T04:58:37;0.40;99.90
33099;DHT22;19465;49.016;11.414;2024-03-08T05:01:03;0.30;99.90
33099;DHT22;19465;49.016;11.414;2024-03-08T05:03:29;0.30;99.90
33099;DHT22;19465;49.016;11.414;2024-03-08T05:05:55;0.40;99.90
33099;DHT22;19465;49.016;11.414;2024-03-08T05:08:21;0.30;99.90
33099;DHT22;19465;49.016;11.414;2024-03-08T05:10:47;0.30;99.90
33099;DHT22;19465;49.016;11.414;2024-03-08T05:13:12;0.30;99.90
33099;DHT22;19465;49.016;11.414;2024-03-08T05:15:38;0.30;99.90
33099;DHT22;19465;49.016;11.414;2024-03-08T05:18:04;0.30;99.90
33099;DHT22;19465;49.016;11.414;2024-03-08T05:20:30;0.30;99.90
33099;DHT22;19465;49.016;11.414;2024-03-08T05:22:56;0.30;99.90
33099;DHT22;19465;49.016;11.414;2024-03-08T05:25:24;0.30;99.90
33099;DHT22;19465;49.016;11.414;2024-03-08T05:27:49;0.30;99.90
33099;DHT22;19465;49.016;11.414;2024-03-08T05:30:15;0.30;99.90
33099;DHT22;19465;49.016;11.414;2024-03-08T05:32:43;0.30;99.90
33099;DHT22;19465;49.016;11.414;2024-03-08T05:35:12;0.40;99.90
33099;DHT22;19465;49.016;11.414;2024-03-08T05:37:38;0.30;99.90
33099;DHT22;19465;49.016;11.414;2024-03-08T05:40:08;0.30;99.90
33099;DHT22;19465;49.016;11.414;2024-03-08T05:42:36;0.30;99.90
33099;DHT22;19465;49.016;11.414;2024-03-08T05:45:05;0.40;99.90
33099;DHT22;19465;49.016;11.414;2024-03-08T05:47:35;0.40;99.90
33099;DHT22;19465;49.016;11.414;2024-03-08T05:50:00;0.40;99.90
33099;DHT22;19465;49.016;11.414;2024-03-08T05:52:26;0.40;99.90
33099;DHT22;19465;49.016;11.414;2024-03-08T05:54:52;0.40;99.90
33099;DHT22;19465;49.016;11.414;2024-03-08T05:57:17;0.40;99.90
33099;DHT22;19465;49.016;11.414;2024-03-08T05:59:43;0.50;99.90
33099;DHT22;19465;49.016;11.414;2024-03-08T06:02:09;0.50;99.90
33099;DHT22;19465;49.016;11.414;2024-03-08T06:04:34;0.60;99.90
33099;DHT22;19465;49.016;11.414;2024-03-08T06:07:00;0.60;99.90
33099;DHT22;19465;49.016;11.414;2024-03-08T06:09:25;0.70;99.90
33099;DHT22;19465;49.016;11.414;2024-03-08T06:11:52;0.70;99.90
33099;DHT22;19465;49.016;11.414;2024-03-08T06:14:19;0.80;99.90
33099;DHT22;19465;49.016;11.414;2024-03-08T06:16:45;0.80;99.90
33099;DHT22;19465;49.016;11.414;2024-03-08T06:19:11;0.90;99.90
33099;DHT22;19465;49.016;11.414;2024-03-08T06:21:37;1.00;99.90
33099;DHT22;19465;49.016;11.414;2024-03-08T06:24:03;1.00;99.90
33099;DHT22;19465;49.016;11.414;2024-03-08T06:26:28;1.00;99.90
33099;DHT22;19465;49.016;11.414;2024-03-08T06:28:54;1.00;99.90
33099;DHT22;19465;49.016;11.414;2024-03-08T06:31:20;1.10;99.90
33099;DHT22;19465;49.016;11.414;2024-03-08T06:33:46;1.20;99.90
33099;DHT22;19465;49.016;11.414;2024-03-08T06:36:11;1.30;99.90
33099;DHT22;19465;49.016;11.414;2024-03-08T06:38:38;1.40;99.90
33099;DHT22;19465;49.016;11.414;2024-03-08T06:41:08;1.60;99.90
33099;DHT22;19465;49.016;11.414;2024-03-08T06:43:34;1.60;99.90
33099;DHT22;19465;49.016;11.414;2024-03-08T06:46:00;1.70;99.90
33099;DHT22;19465;49.016;11.414;2024-03-08T06:48:25;1.80;99.90
33099;DHT22;19465;49.016;11.414;2024-03-08T06:50:51;1.90;99.90
33099;DHT22;19465;49.016;11.414;2024-03-08T06:53:16;2.10;99.90
33099;DHT22;19465;49.016;11.414;2024-03-08T06:55:45;2.20;99.90
33099;DHT22;19465;49.016;11.414;2024-03-08T06:58:11;2.50;99.90
33099;DHT22;19465;49.016;11.414;2024-03-08T07:00:39;2.50;99.90
33099;DHT22;19465;49.016;11.414;2024-03-08T07:03:08;2.90;99.90
33099;DHT22;19465;49.016;11.414;2024-03-08T07:05:37;4.00;99.90
33099;DHT22;19465;49.016;11.414;2024-03-08T07:08:03;5.40;99.90
33099;DHT22;19465;49.016;11.414;2024-03-08T07:10:29;6.00;98.40
33099;DHT22;19465;49.016;11.414;2024-03-08T07:12:54;6.60;96.80
33099;DHT22;19465;49.016;11.414;2024-03-08T07:15:20;6.90;95.40
33099;DHT22;19465;49.016;11.414;2024-03-08T07:17:46;7.20;94.90
33099;DHT22;19465;49.016;11.414;2024-03-08T07:20:13;7.20;94.20
33099;DHT22;19465;49.016;11.414;2024-03-08T07:22:40;7.10;94.30
33099;DHT22;19465;49.016;11.414;2024-03-08T07:25:06;7.40;93.40
33099;DHT22;19465;49.016;11.414;2024-03-08T07:27:50;7.00;93.40
33099;DHT22;19465;49.016;11.414;2024-03-08T07:30:17;7.40;93.00
33099;DHT22;19465;49.016;11.414;2024-03-08T07:33:00;8.50;91.50
33099;DHT22;19465;49.016;11.414;2024-03-08T07:35:28;8.30;91.40
33099;DHT22;19465;49.016;11.414;2024-03-08T07:37:54;7.00;92.90
33099;DHT22;19465;49.016;11.414;2024-03-08T07:40:20;7.70;93.30
33099;DHT22;19465;49.016;11.414;2024-03-08T07:42:46;10.00;90.00
33099;DHT22;19465;49.016;11.414;2024-03-08T07:45:12;12.10;79.30
33099;DHT22;19465;49.016;11.414;2024-03-08T07:47:38;13.50;71.80
33099;DHT22;19465;49.016;11.414;2024-03-08T07:50:04;15.60;66.00
33099;DHT22;19465;49.016;11.414;2024-03-08T07:52:29;15.70;60.10
33099;DHT22;19465;49.016;11.414;2024-03-08T07:54:55;16.70;58.70
33099;DHT22;19465;49.016;11.414;2024-03-08T07:57:20;16.30;57.30
33099;DHT22;19465;49.016;11.414;2024-03-08T07:59:46;16.90;56.00
33099;DHT22;19465;49.016;11.414;2024-03-08T08:02:12;17.30;54.50
33099;DHT22;19465;49.016;11.414;2024-03-08T08:04:38;17.10;54.20
33099;DHT22;19465;49.016;11.414;2024-03-08T08:07:04;17.10;53.30
33099;DHT22;19465;49.016;11.414;2024-03-08T08:09:29;17.60;52.30
33099;DHT22;19465;49.016;11.414;2024-03-08T08:12:00;16.10;55.00
33099;DHT22;19465;49.016;11.414;2024-03-08T08:14:27;15.70;54.90
33099;DHT22;19465;49.016;11.414;2024-03-08T08:16:54;15.00;56.60
33099;DHT22;19465;49.016;11.414;2024-03-08T08:19:21;14.50;57.40
33099;DHT22;19465;49.016;11.414;2024-03-08T08:21:46;13.20;59.40
33099;DHT22;19465;49.016;11.414;2024-03-08T08:24:12;12.00;63.90
33099;DHT22;19465;49.016;11.414;2024-03-08T08:26:38;10.60;67.60
33099;DHT22;19465;49.016;11.414;2024-03-08T08:29:03;9.80;70.20
33099;DHT22;19465;49.016;11.414;2024-03-08T08:31:29;9.20;72.40
33099;DHT22;19465;49.016;11.414;2024-03-08T08:33:57;9.10;73.90
33099;DHT22;19465;49.016;11.414;2024-03-08T08:36:25;9.20;73.50
33099;DHT22;19465;49.016;11.414;2024-03-08T08:38:51;9.80;74.20
33099;DHT22;19465;49.016;11.414;2024-03-08T08:41:19;10.30;67.70
33099;DHT22;19465;49.016;11.414;2024-03-08T08:43:46;12.20;67.10
33099;DHT22;19465;49.016;11.414;2024-03-08T08:46:12;14.70;61.50
33099;DHT22;19465;49.016;11.414;2024-03-08T08:48:39;15.80;57.10
33099;DHT22;19465;49.016;11.414;2024-03-08T08:51:09;15.10;57.40
33099;DHT22;19465;49.016;11.414;2024-03-08T08:53:41;16.60;55.20
33099;DHT22;19465;49.016;11.414;2024-03-08T08:56:09;16.90;53.30
33099;DHT22;19465;49.016;11.414;2024-03-08T08:58:38;16.80;53.90
33099;DHT22;19465;49.016;11.414;2024-03-08T09:01:05;15.20;54.10
33099;DHT22;19465;49.016;11.414;2024-03-08T09:03:30;16.90;53.90
33099;DHT22;19465;49.016;11.414;2024-03-08T09:05:56;16.90;53.60
33099;DHT22;19465;49.016;11.414;2024-03-08T09:08:21;16.80;52.80
33099;DHT22;19465;49.016;11.414;2024-03-08T09:10:48;18.30;52.40
33099;DHT22;19465;49.016;11.414;2024-03-08T09:13:14;17.70;50.80
33099;DHT22;19465;49.016;11.414;2024-03-08T09:15:39;17.00;52.00
33099;DHT22;19465;49.016;11.414;2024-03-08T09:18:06;17.00;51.60
33099;DHT22;19465;49.016;11.414;2024-03-08T09:20:32;15.90;53.10
33099;DHT22;19465;49.016;11.414;2024-03-08T09:22:57;16.00;53.60
33099;DHT22;19465;49.016;11.414;2024-03-08T09:25:23;16.60;53.00
33099;DHT22;19465;49.016;11.414;2024-03-08T09:27:48;17.50;52.90
33099;DHT22;19465;49.016;11.414;2024-03-08T09:30:15;17.60;51.40
33099;DHT22;19465;49.016;11.414;2024-03-08T09:32:41;17.50;51.40
33099;DHT22;19465;49.016;11.414;2024-03-08T09:35:08;16.90;50.10
33099;DHT22;19465;49.016;11.414;2024-03-08T09:37:34;17.50;51.70
33099;DHT22;19465;49.016;11.414;2024-03-08T09:40:00;16.80;51.40
33099;DHT22;19465;49.016;11.414;2024-03-08T09:42:30;18.00;52.30
33099;DHT22;19465;49.016;11.414;2024-03-08T09:44:57;17.10;50.50
33099;DHT22;19465;49.016;11.414;2024-03-08T09:47:25;16.20;52.80
33099;DHT22;19465;49.016;11.414;2024-03-08T09:49:54;17.10;52.80
33099;DHT22;19465;49.016;11.414;2024-03-08T09:52:20;16.50;52.30
33099;DHT22;19465;49.016;11.414;2024-03-08T09:54:46;15.80;54.70
33099;DHT22;19465;49.016;11.414;2024-03-08T09:57:11;16.70;55.40
33099;DHT22;19465;49.016;11.414;2024-03-08T09:59:37;16.30;54.00
33099;DHT22;19465;49.016;11.414;2024-03-08T10:02:03;17.10;53.70
33099;DHT22;19465;49.016;11.414;2024-03-08T10:04:30;17.80;54.00
33099;DHT22;19465;49.016;11.414;2024-03-08T10:06:59;18.10;52.80
33099;DHT22;19465;49.016;11.414;2024-03-08T10:09:27;18.00;52.60
33099;DHT22;19465;49.016;11.414;2024-03-08T10:11:56;17.80;52.50
33099;DHT22;19465;49.016;11.414;2024-03-08T10:14:24;19.00;52.00
33099;DHT22;19465;49.016;11.414;2024-03-08T10:16:49;18.70;51.40
33099;DHT22;19465;49.016;11.414;2024-03-08T10:19:15;18.00;52.00
33099;DHT22;19465;49.016;11.414;2024-03-08T10:21:49;19.50;51.60
33099;DHT22;19465;49.016;11.414;2024-03-08T10:24:14;18.70;49.70
33099;DHT22;19465;49.016;11.414;2024-03-08T10:26:40;19.30;49.00
33099;DHT22;19465;49.016;11.414;2024-03-08T10:29:06;18.00;49.50
33099;DHT22;19465;49.016;11.414;2024-03-08T10:31:33;18.80;49.90
33099;DHT22;19465;49.016;11.414;2024-03-08T10:33:58;20.20;48.40
33099;DHT22;19465;49.016;11.414;2024-03-08T10:36:24;19.40;48.70
33099;DHT22;19465;49.016;11.414;2024-03-08T10:38:52;20.10;48.10
33099;DHT22;19465;49.016;11.414;2024-03-08T10:41:19;19.80;46.90
33099;DHT22;19465;49.016;11.414;2024-03-08T10:49:08;21.00;44.90
33099;DHT22;19465;49.016;11.414;2024-03-08T10:51:38;20.90;46.10
33099;DHT22;19465;49.016;11.414;2024-03-08T10:54:07;23.50;45.00
33099;DHT22;19465;49.016;11.414;2024-03-08T10:56:34;22.70;43.00
33099;DHT22;19465;49.016;11.414;2024-03-08T10:59:00;21.20;44.80
33099;DHT22;19465;49.016;11.414;2024-03-08T11:01:26;21.90;43.90
33099;DHT22;19465;49.016;11.414;2024-03-08T11:03:52;21.90;45.20
33099;DHT22;19465;49.016;11.414;2024-03-08T11:08:49;22.10;45.00
33099;DHT22;19465;49.016;11.414;2024-03-08T11:11:32;24.20;43.80
33099;DHT22;19465;49.016;11.414;2024-03-08T11:14:00;24.90;42.10
33099;DHT22;19465;49.016;11.414;2024-03-08T11:19:01;24.60;42.50
33099;DHT22;19465;49.016;11.414;2024-03-08T11:21:30;22.20;41.30
33099;DHT22;19465;49.016;11.414;2024-03-08T11:24:05;23.50;42.60
33099;DHT22;19465;49.016;11.414;2024-03-08T11:26:32;23.80;43.10
33099;DHT22;19465;49.016;11.414;2024-03-08T11:32:14;23.20;42.10
33099;DHT22;19465;49.016;11.414;2024-03-08T11:34:41;24.50;42.50
33099;DHT22;19465;49.016;11.414;2024-03-08T11:37:16;24.50;41.60
33099;DHT22;19465;49.016;11.414;2024-03-08T11:39:47;24.40;43.00
33099;DHT22;19465;49.016;11.414;2024-03-08T11:42:14;24.50;42.20
33099;DHT22;19465;49.016;11.414;2024-03-08T11:44:40;24.20;40.40
33099;DHT22;19465;49.016;11.414;2024-03-08T11:47:10;24.10;41.60
33099;DHT22;19465;49.016;11.414;2024-03-08T11:49:36;22.20;41.90
33099;DHT22;19465;49.016;11.414;2024-03-08T11:52:02;23.50;41.60
33099;DHT22;19465;49.016;11.414;2024-03-08T11:54:28;23.10;42.60
33099;DHT22;19465;49.016;11.414;2024-03-08T11:56:56;22.50;41.30
33099;DHT22;19465;49.016;11.414;2024-03-08T11:59:29;22.70;41.10
33099;DHT22;19465;49.016;11.414;2024-03-08T12:02:04;23.80;41.90
33099;DHT22;19465;49.016;11.414;2024-03-08T12:04:30;22.00;41.60
33099;DHT22;19465;49.016;11.414;2024-03-08T12:06:58;23.10;42.40
33099;DHT22;19465;49.016;11.414;2024-03-08T12:09:25;23.00;41.80
33099;DHT22;19465;49.016;11.414;2024-03-08T12:11:51;23.40;41.60
33099;DHT22;19465;49.016;11.414;2024-03-08T12:14:17;24.70;40.80
33099;DHT22;19465;49.016;11.414;2024-03-08T12:16:43;23.60;40.20
33099;DHT22;19465;49.016;11.414;2024-03-08T12:19:09;22.30;41.20
33099;DHT22;19465;49.016;11.414;2024-03-08T12:21:35;22.50;42.20
33099;DHT22;19465;49.016;11.414;2024-03-08T12:24:08;23.60;41.40
33099;DHT22;19465;49.016;11.414;2024-03-08T12:26:36;24.20;40.40
33099;DHT22;19465;49.016;11.414;2024-03-08T12:29:22;25.60;40.20
33099;DHT22;19465;49.016;11.414;2024-03-08T12:31:54;24.70;40.00
33099;DHT22;19465;49.016;11.414;2024-03-08T12:34:20;23.50;39.90
33099;DHT22;19465;49.016;11.414;2024-03-08T12:36:52;23.90;40.90
33099;DHT22;19465;49.016;11.414;2024-03-08T12:39:20;22.70;41.10
33099;DHT22;19465;49.016;11.414;2024-03-08T12:41:48;23.20;42.00
33099;DHT22;19465;49.016;11.414;2024-03-08T12:44:15;23.40;41.50
33099;DHT22;19465;49.016;11.414;2024-03-08T12:46:40;24.10;42.00
33099;DHT22;19465;49.016;11.414;2024-03-08T12:49:07;25.10;41.00
33099;DHT22;19465;49.016;11.414;2024-03-08T12:51:34;25.70;40.50
33099;DHT22;19465;49.016;11.414;2024-03-08T12:53:59;24.50;38.40
33099;DHT22;19465;49.016;11.414;2024-03-08T12:56:30;24.00;39.70
33099;DHT22;19465;49.016;11.414;2024-03-08T12:58:57;23.70;40.10
33099;DHT22;19465;49.016;11.414;2024-03-08T13:01:23;22.30;39.60
33099;DHT22;19465;49.016;11.414;2024-03-08T13:03:49;22.90;42.40
33099;DHT22;19465;49.016;11.414;2024-03-08T13:06:18;23.60;41.30
33099;DHT22;19465;49.016;11.414;2024-03-08T13:08:47;23.50;40.60
33099;DHT22;19465;49.016;11.414;2024-03-08T13:11:13;23.80;41.80
33099;DHT22;19465;49.016;11.414;2024-03-08T13:13:42;23.20;40.70
33099;DHT22;19465;49.016;11.414;2024-03-08T13:16:08;22.60;42.10
33099;DHT22;19465;49.016;11.414;2024-03-08T13:18:35;22.60;42.00
33099;DHT22;19465;49.016;11.414;2024-03-08T13:21:00;23.00;42.60
33099;DHT22;19465;49.016;11.414;2024-03-08T13:23:32;24.40;41.40
33099;DHT22;19465;49.016;11.414;2024-03-08T13:25:58;22.30;41.60
33099;DHT22;19465;49.016;11.414;2024-03-08T13:28:24;21.90;42.50
33099;DHT22;19465;49.016;11.414;2024-03-08T13:30:55;23.00;42.90
33099;DHT22;19465;49.016;11.414;2024-03-08T13:33:23;23.00;42.20
33099;DHT22;19465;49.016;11.414;2024-03-08T13:35:49;23.60;41.90
33099;DHT22;19465;49.016;11.414;2024-03-08T13:38:16;23.40;42.00
33099;DHT22;19465;49.016;11.414;2024-03-08T13:40:45;22.40;42.90
33099;DHT22;19465;49.016;11.414;2024-03-08T13:43:12;20.60;43.00
33099;DHT22;19465;49.016;11.414;2024-03-08T13:45:38;18.90;44.60
33099;DHT22;19465;49.016;11.414;2024-03-08T13:48:04;18.20;46.10
33099;DHT22;19465;49.016;11.414;2024-03-08T13:50:30;18.20;47.20
33099;DHT22;19465;49.016;11.414;2024-03-08T13:52:56;19.20;47.50
33099;DHT22;19465;49.016;11.414;2024-03-08T13:55:22;21.40;46.70
33099;DHT22;19465;49.016;11.414;2024-03-08T13:57:48;22.40;45.80
33099;DHT22;19465;49.016;11.414;2024-03-08T14:00:14;22.20;45.60
33099;DHT22;19465;49.016;11.414;2024-03-08T14:02:40;22.60;44.70
33099;DHT22;19465;49.016;11.414;2024-03-08T14:05:09;21.40;43.90
33099;DHT22;19465;49.016;11.414;2024-03-08T14:07:37;22.00;44.60
33099;DHT22;19465;49.016;11.414;2024-03-08T14:10:03;22.90;44.70
33099;DHT22;19465;49.016;11.414;2024-03-08T14:12:29;23.00;43.60
33099;DHT22;19465;49.016;11.414;2024-03-08T14:14:55;22.80;43.10
33099;DHT22;19465;49.016;11.414;2024-03-08T14:17:25;22.50;43.00
33099;DHT22;19465;49.016;11.414;2024-03-08T14:19:52;22.50;43.00
33099;DHT22;19465;49.016;11.414;2024-03-08T14:22:18;21.70;43.90
33099;DHT22;19465;49.016;11.414;2024-03-08T14:24:43;20.90;44.80
33099;DHT22;19465;49.016;11.414;2024-03-08T14:27:10;19.30;46.00
33099;DHT22;19465;49.016;11.414;2024-03-08T14:29:37;16.50;48.00
33099;DHT22;19465;49.016;11.414;2024-03-08T14:32:04;15.20;51.20
33099;DHT22;19465;49.016;11.414;2024-03-08T14:34:34;14.20;52.60
33099;DHT22;19465;49.016;11.414;2024-03-08T14:37:00;13.90;55.80
33099;DHT22;19465;49.016;11.414;2024-03-08T14:39:26;13.90;54.20
33099;DHT22;19465;49.016;11.414;2024-03-08T14:42:01;13.50;53.70
33099;DHT22;19465;49.016;11.414;2024-03-08T14:44:28;13.40;54.30
33099;DHT22;19465;49.016;11.414;2024-03-08T14:46:58;13.20;56.10
33099;DHT22;19465;49.016;11.414;2024-03-08T14:49:24;13.40;54.20
33099;DHT22;19465;49.016;11.414;2024-03-08T14:51:55;13.60;55.00
33099;DHT22;19465;49.016;11.414;2024-03-08T14:54:21;13.00;54.00
33099;DHT22;19465;49.016;11.414;2024-03-08T14:56:48;13.20;54.90
33099;DHT22;19465;49.016;11.414;2024-03-08T14:59:16;12.90;54.40
33099;DHT22;19465;49.016;11.414;2024-03-08T15:01:42;12.70;54.80
33099;DHT22;19465;49.016;11.414;2024-03-08T15:04:09;12.60;53.60
33099;DHT22;19465;49.016;11.414;2024-03-08T15:06:39;12.60;54.70
33099;DHT22;19465;49.016;11.414;2024-03-08T15:09:05;12.60;54.40
33099;DHT22;19465;49.016;11.414;2024-03-08T15:11:40;12.30;54.60
33099;DHT22;19465;49.016;11.414;2024-03-08T15:14:07;12.10;55.30
33099;DHT22;19465;49.016;11.414;2024-03-08T15:16:40;12.30;55.90
33099;DHT22;19465;49.016;11.414;2024-03-08T15:19:06;12.00;55.80
33099;DHT22;19465;49.016;11.414;2024-03-08T15:21:32;11.60;56.40
33099;DHT22;19465;49.016;11.414;2024-03-08T15:23:59;11.80;56.80
33099;DHT22;19465;49.016;11.414;2024-03-08T15:26:25;11.80;57.30
33099;DHT22;19465;49.016;11.414;2024-03-08T15:28:51;11.60;57.30
33099;DHT22;19465;49.016;11.414;2024-03-08T15:31:17;11.60;58.00
33099;DHT22;19465;49.016;11.414;2024-03-08T15:33:46;11.20;57.60